sensor_id;sensor_type;location;lat;lon;timestamp;P1;durP1;ratioP1;P2;durP2;ratioP2
72205;SDS011;60111;48.286;7.812;2023-05-20T00:00:45;7.10;;;4.67;;
72205;SDS011;60111;48.286;7.812;2023-05-20T00:03:18;7.60;;;4.53;;
72205;SDS011;60111;48.286;7.812;2023-05-20T00:05:51;8.83;;;4.62;;
72205;SDS011;60111;48.286;7.812;2023-05-20T00:08:25;6.10;;;4.30;;
72205;SDS011;60111;48.286;7.812;2023-05-20T00:10:57;8.70;;;5.17;;
72205;SDS011;60111;48.286;7.812;2023-05-20T00:13:30;8.83;;;5.40;;
72205;SDS011;60111;48.286;7.812;2023-05-20T00:16:02;8.28;;;4.75;;
72205;SDS011;60111;48.286;7.812;2023-05-20T00:18:35;7.75;;;5.17;;
72205;SDS011;60111;48.286;7.812;2023-05-20T00:21:08;8.25;;;4.50;;
72205;SDS011;60111;48.286;7.812;2023-05-20T00:23:40;6.25;;;4.65;;
72205;SDS011;60111;48.286;7.812;2023-05-20T00:26:13;11.55;;;5.30;;
72205;SDS011;60111;48.286;7.812;2023-05-20T00:28:45;9.45;;;4.67;;
72205;SDS011;60111;48.286;7.812;2023-05-20T00:31:18;9.70;;;4.65;;
72205;SDS011;60111;48.286;7.812;2023-05-20T00:33:51;4.83;;;4.10;;
72205;SDS011;60111;48.286;7.812;2023-05-20T00:36:24;6.20;;;4.23;;
72205;SDS011;60111;48.286;7.812;2023-05-20T00:38:57;8.77;;;4.50;;
72205;SDS011;60111;48.286;7.812;2023-05-20T00:41:30;9.37;;;3.90;;
72205;SDS011;60111;48.286;7.812;2023-05-20T00:44:03;6.30;;;4.03;;
72205;SDS011;60111;48.286;7.812;2023-05-20T00:46:36;7.67;;;3.93;;
72205;SDS011;60111;48.286;7.812;2023-05-20T00:49:08;5.85;;;3.72;;
72205;SDS011;60111;48.286;7.812;2023-05-20T00:51:41;7.65;;;3.90;;
72205;SDS011;60111;48.286;7.812;2023-05-20T00:54:14;6.73;;;3.87;;
72205;SDS011;60111;48.286;7.812;2023-05-20T00:56:47;8.30;;;4.00;;
72205;SDS011;60111;48.286;7.812;2023-05-20T00:59:20;5.90;;;4.20;;
72205;SDS011;60111;48.286;7.812;2023-05-20T01:01:52;6.65;;;3.98;;
72205;SDS011;60111;48.286;7.812;2023-05-20T01:04:25;7.00;;;3.90;;
72205;SDS011;60111;48.286;7.812;2023-05-20T01:06:58;6.20;;;4.10;;
72205;SDS011;60111;48.286;7.812;2023-05-20T01:09:34;5.83;;;4.00;;
72205;SDS011;60111;48.286;7.812;2023-05-20T01:17:42;9.45;;;4.10;;
72205;SDS011;60111;48.286;7.812;2023-05-20T01:20:16;8.85;;;4.33;;
72205;SDS011;60111;48.286;7.812;2023-05-20T01:22:53;6.10;;;4.00;;
72205;SDS011;60111;48.286;7.812;2023-05-20T01:25:27;6.10;;;3.98;;
72205;SDS011;60111;48.286;7.812;2023-05-20T01:27:59;11.03;;;4.47;;
72205;SDS011;60111;48.286;7.812;2023-05-20T01:30:34;6.97;;;4.42;;
72205;SDS011;60111;48.286;7.812;2023-05-20T01:33:09;8.17;;;4.63;;
72205;SDS011;60111;48.286;7.812;2023-05-20T01:35:43;7.67;;;4.30;;
72205;SDS011;60111;48.286;7.812;2023-05-20T01:38:15;7.55;;;4.08;;
72205;SDS011;60111;48.286;7.812;2023-05-20T01:40:51;10.25;;;4.92;;
72205;SDS011;60111;48.286;7.812;2023-05-20T01:43:25;8.55;;;4.87;;
72205;SDS011;60111;48.286;7.812;2023-05-20T01:45:58;8.88;;;5.10;;
72205;SDS011;60111;48.286;7.812;2023-05-20T01:48:32;10.00;;;4.70;;
72205;SDS011;60111;48.286;7.812;2023-05-20T01:51:05;6.72;;;4.50;;
72205;SDS011;60111;48.286;7.812;2023-05-20T01:53:37;7.22;;;4.75;;
72205;SDS011;60111;48.286;7.812;2023-05-20T01:56:10;7.27;;;4.83;;
72205;SDS011;60111;48.286;7.812;2023-05-20T01:58:43;10.93;;;4.83;;
72205;SDS011;60111;48.286;7.812;2023-05-20T02:01:15;8.75;;;4.85;;
72205;SDS011;60111;48.286;7.812;2023-05-20T02:03:48;9.28;;;4.55;;
72205;SDS011;60111;48.286;7.812;2023-05-20T02:06:20;8.80;;;4.37;;
72205;SDS011;60111;48.286;7.812;2023-05-20T02:08:53;10.35;;;4.95;;
72205;SDS011;60111;48.286;7.812;2023-05-20T02:11:25;8.10;;;4.78;;
72205;SDS011;60111;48.286;7.812;2023-05-20T02:13:58;7.87;;;4.67;;
72205;SDS011;60111;48.286;7.812;2023-05-20T02:16:30;9.33;;;5.20;;
72205;SDS011;60111;48.286;7.812;2023-05-20T02:19:03;9.58;;;4.90;;
72205;SDS011;60111;48.286;7.812;2023-05-20T02:21:36;8.78;;;5.03;;
72205;SDS011;60111;48.286;7.812;2023-05-20T02:24:12;7.97;;;5.30;;
72205;SDS011;60111;48.286;7.812;2023-05-20T02:26:45;7.92;;;5.35;;
72205;SDS011;60111;48.286;7.812;2023-05-20T02:29:19;7.87;;;5.33;;
72205;SDS011;60111;48.286;7.812;2023-05-20T02:31:52;10.32;;;6.00;;
72205;SDS011;60111;48.286;7.812;2023-05-20T02:34:26;11.05;;;5.50;;
72205;SDS011;60111;48.286;7.812;2023-05-20T02:36:59;8.73;;;5.85;;
72205;SDS011;60111;48.286;7.812;2023-05-20T02:39:32;10.10;;;5.73;;
72205;SDS011;60111;48.286;7.812;2023-05-20T02:42:05;9.38;;;5.33;;
72205;SDS011;60111;48.286;7.812;2023-05-20T02:44:37;8.60;;;5.80;;
72205;SDS011;60111;48.286;7.812;2023-05-20T02:47:10;13.27;;;6.20;;
72205;SDS011;60111;48.286;7.812;2023-05-20T02:49:44;9.83;;;5.17;;
72205;SDS011;60111;48.286;7.812;2023-05-20T02:52:17;11.12;;;5.65;;
72205;SDS011;60111;48.286;7.812;2023-05-20T02:54:50;9.95;;;5.47;;
72205;SDS011;60111;48.286;7.812;2023-05-20T02:57:22;6.53;;;4.93;;
72205;SDS011;60111;48.286;7.812;2023-05-20T03:02:28;11.00;;;5.75;;
72205;SDS011;60111;48.286;7.812;2023-05-20T03:05:01;7.53;;;5.67;;
72205;SDS011;60111;48.286;7.812;2023-05-20T03:07:34;8.27;;;5.33;;
72205;SDS011;60111;48.286;7.812;2023-05-20T03:10:07;9.58;;;5.35;;
72205;SDS011;60111;48.286;7.812;2023-05-20T03:12:40;12.47;;;5.60;;
72205;SDS011;60111;48.286;7.812;2023-05-20T03:15:13;7.12;;;5.47;;
72205;SDS011;60111;48.286;7.812;2023-05-20T03:20:42;7.78;;;5.20;;
72205;SDS011;60111;48.286;7.812;2023-05-20T03:23:14;8.23;;;5.08;;
72205;SDS011;60111;48.286;7.812;2023-05-20T03:25:47;10.80;;;5.12;;
72205;SDS011;60111;48.286;7.812;2023-05-20T03:28:20;8.85;;;5.20;;
72205;SDS011;60111;48.286;7.812;2023-05-20T03:30:52;10.63;;;5.33;;
72205;SDS011;60111;48.286;7.812;2023-05-20T03:33:25;6.83;;;4.90;;
72205;SDS011;60111;48.286;7.812;2023-05-20T03:35:58;9.65;;;5.25;;
72205;SDS011;60111;48.286;7.812;2023-05-20T03:38:31;8.15;;;4.75;;
72205;SDS011;60111;48.286;7.812;2023-05-20T03:41:03;9.63;;;5.13;;
72205;SDS011;60111;48.286;7.812;2023-05-20T03:43:36;9.43;;;5.12;;
72205;SDS011;60111;48.286;7.812;2023-05-20T03:46:08;7.53;;;4.53;;
72205;SDS011;60111;48.286;7.812;2023-05-20T03:48:41;6.97;;;4.08;;
72205;SDS011;60111;48.286;7.812;2023-05-20T03:51:13;8.57;;;4.70;;
72205;SDS011;60111;48.286;7.812;2023-05-20T03:53:46;7.83;;;4.40;;
72205;SDS011;60111;48.286;7.812;2023-05-20T03:56:18;8.43;;;4.37;;
72205;SDS011;60111;48.286;7.812;2023-05-20T03:58:52;5.72;;;3.90;;
72205;SDS011;60111;48.286;7.812;2023-05-20T04:01:24;7.60;;;4.40;;
72205;SDS011;60111;48.286;7.812;2023-05-20T04:03:57;5.30;;;4.05;;
72205;SDS011;60111;48.286;7.812;2023-05-20T04:06:29;9.28;;;4.28;;
72205;SDS011;60111;48.286;7.812;2023-05-20T04:09:03;9.37;;;4.47;;
72205;SDS011;60111;48.286;7.812;2023-05-20T04:11:36;9.30;;;4.35;;
72205;SDS011;60111;48.286;7.812;2023-05-20T04:14:08;6.73;;;4.40;;
72205;SDS011;60111;48.286;7.812;2023-05-20T04:16:41;8.18;;;4.37;;
72205;SDS011;60111;48.286;7.812;2023-05-20T04:19:14;8.78;;;4.42;;
72205;SDS011;60111;48.286;7.812;2023-05-20T04:21:49;8.58;;;4.78;;
72205;SDS011;60111;48.286;7.812;2023-05-20T04:24:22;7.07;;;4.30;;
72205;SDS011;60111;48.286;7.812;2023-05-20T04:26:55;6.10;;;4.20;;
72205;SDS011;60111;48.286;7.812;2023-05-20T04:29:28;7.35;;;4.72;;
72205;SDS011;60111;48.286;7.812;2023-05-20T04:32:02;8.15;;;4.87;;
72205;SDS011;60111;48.286;7.812;2023-05-20T04:34:37;7.70;;;4.87;;
72205;SDS011;60111;48.286;7.812;2023-05-20T04:37:10;8.30;;;5.58;;
72205;SDS011;60111;48.286;7.812;2023-05-20T04:39:43;8.75;;;5.15;;
72205;SDS011;60111;48.286;7.812;2023-05-20T04:42:18;6.70;;;4.80;;
72205;SDS011;60111;48.286;7.812;2023-05-20T04:47:43;6.78;;;5.08;;
72205;SDS011;60111;48.286;7.812;2023-05-20T04:50:16;9.28;;;4.85;;
72205;SDS011;60111;48.286;7.812;2023-05-20T04:52:49;9.35;;;5.03;;
72205;SDS011;60111;48.286;7.812;2023-05-20T04:55:21;11.27;;;5.10;;
72205;SDS011;60111;48.286;7.812;2023-05-20T04:57:56;7.42;;;4.87;;
72205;SDS011;60111;48.286;7.812;2023-05-20T05:00:28;6.72;;;4.95;;
72205;SDS011;60111;48.286;7.812;2023-05-20T05:03:01;9.33;;;4.90;;
72205;SDS011;60111;48.286;7.812;2023-05-20T05:05:34;8.20;;;4.75;;
72205;SDS011;60111;48.286;7.812;2023-05-20T05:08:08;11.33;;;5.22;;
72205;SDS011;60111;48.286;7.812;2023-05-20T05:10:44;6.37;;;4.60;;
72205;SDS011;60111;48.286;7.812;2023-05-20T05:13:17;6.53;;;4.50;;
72205;SDS011;60111;48.286;7.812;2023-05-20T05:15:59;7.20;;;4.37;;
72205;SDS011;60111;48.286;7.812;2023-05-20T05:18:32;7.50;;;4.60;;
72205;SDS011;60111;48.286;7.812;2023-05-20T05:21:05;8.00;;;4.85;;
72205;SDS011;60111;48.286;7.812;2023-05-20T05:23:38;6.67;;;4.33;;
72205;SDS011;60111;48.286;7.812;2023-05-20T05:26:12;6.62;;;4.60;;
72205;SDS011;60111;48.286;7.812;2023-05-20T05:28:44;8.73;;;4.42;;
72205;SDS011;60111;48.286;7.812;2023-05-20T05:31:17;6.70;;;4.20;;
72205;SDS011;60111;48.286;7.812;2023-05-20T05:33:50;5.47;;;3.90;;
72205;SDS011;60111;48.286;7.812;2023-05-20T05:36:23;7.75;;;4.62;;
72205;SDS011;60111;48.286;7.812;2023-05-20T05:38:58;8.93;;;4.58;;
72205;SDS011;60111;48.286;7.812;2023-05-20T05:41:30;8.50;;;4.53;;
72205;SDS011;60111;48.286;7.812;2023-05-20T05:44:03;6.08;;;4.50;;
72205;SDS011;60111;48.286;7.812;2023-05-20T05:46:36;6.12;;;4.47;;
72205;SDS011;60111;48.286;7.812;2023-05-20T05:49:09;6.58;;;4.75;;
72205;SDS011;60111;48.286;7.812;2023-05-20T05:51:41;8.45;;;4.58;;
72205;SDS011;60111;48.286;7.812;2023-05-20T05:54:14;6.30;;;4.70;;
72205;SDS011;60111;48.286;7.812;2023-05-20T05:56:46;5.50;;;4.45;;
72205;SDS011;60111;48.286;7.812;2023-05-20T05:59:19;14.40;;;4.85;;
72205;SDS011;60111;48.286;7.812;2023-05-20T06:01:51;6.90;;;4.65;;
72205;SDS011;60111;48.286;7.812;2023-05-20T06:04:24;9.95;;;4.97;;
72205;SDS011;60111;48.286;7.812;2023-05-20T06:06:57;6.30;;;4.37;;
72205;SDS011;60111;48.286;7.812;2023-05-20T06:09:30;7.67;;;4.63;;
72205;SDS011;60111;48.286;7.812;2023-05-20T06:12:03;8.13;;;4.40;;
72205;SDS011;60111;48.286;7.812;2023-05-20T06:14:35;7.08;;;4.42;;
72205;SDS011;60111;48.286;7.812;2023-05-20T06:17:08;6.00;;;4.20;;
72205;SDS011;60111;48.286;7.812;2023-05-20T06:19:41;6.25;;;4.70;;
72205;SDS011;60111;48.286;7.812;2023-05-20T06:22:13;8.13;;;5.03;;
72205;SDS011;60111;48.286;7.812;2023-05-20T06:24:46;8.90;;;4.33;;
72205;SDS011;60111;48.286;7.812;2023-05-20T06:27:18;6.83;;;4.25;;
72205;SDS011;60111;48.286;7.812;2023-05-20T06:29:51;7.43;;;4.07;;
72205;SDS011;60111;48.286;7.812;2023-05-20T06:32:23;6.67;;;4.08;;
72205;SDS011;60111;48.286;7.812;2023-05-20T06:34:56;6.40;;;4.23;;
72205;SDS011;60111;48.286;7.812;2023-05-20T06:37:29;6.83;;;4.72;;
72205;SDS011;60111;48.286;7.812;2023-05-20T06:40:01;10.72;;;4.55;;
72205;SDS011;60111;48.286;7.812;2023-05-20T06:42:34;7.95;;;4.12;;
72205;SDS011;60111;48.286;7.812;2023-05-20T06:45:07;5.80;;;4.10;;
72205;SDS011;60111;48.286;7.812;2023-05-20T06:47:40;5.57;;;4.00;;
72205;SDS011;60111;48.286;7.812;2023-05-20T06:50:13;4.80;;;4.30;;
72205;SDS011;60111;48.286;7.812;2023-05-20T06:52:46;6.10;;;4.00;;
72205;SDS011;60111;48.286;7.812;2023-05-20T06:55:18;9.13;;;4.00;;
72205;SDS011;60111;48.286;7.812;2023-05-20T06:57:51;7.20;;;3.90;;
72205;SDS011;60111;48.286;7.812;2023-05-20T07:00:24;5.60;;;3.85;;
72205;SDS011;60111;48.286;7.812;2023-05-20T07:02:57;6.58;;;3.85;;
72205;SDS011;60111;48.286;7.812;2023-05-20T07:05:29;7.93;;;4.37;;
72205;SDS011;60111;48.286;7.812;2023-05-20T07:08:02;9.93;;;3.83;;
72205;SDS011;60111;48.286;7.812;2023-05-20T07:10:34;7.58;;;4.08;;
72205;SDS011;60111;48.286;7.812;2023-05-20T07:13:07;7.03;;;4.17;;
72205;SDS011;60111;48.286;7.812;2023-05-20T07:15:40;5.42;;;3.75;;
72205;SDS011;60111;48.286;7.812;2023-05-20T07:18:12;6.90;;;3.80;;
72205;SDS011;60111;48.286;7.812;2023-05-20T07:20:45;4.72;;;3.62;;
72205;SDS011;60111;48.286;7.812;2023-05-20T07:23:18;7.58;;;3.98;;
72205;SDS011;60111;48.286;7.812;2023-05-20T07:25:51;5.62;;;3.22;;
72205;SDS011;60111;48.286;7.812;2023-05-20T07:28:24;5.35;;;3.70;;
72205;SDS011;60111;48.286;7.812;2023-05-20T07:30:57;6.33;;;3.80;;
72205;SDS011;60111;48.286;7.812;2023-05-20T07:33:30;7.20;;;3.92;;
72205;SDS011;60111;48.286;7.812;2023-05-20T07:36:02;6.60;;;4.00;;
72205;SDS011;60111;48.286;7.812;2023-05-20T07:38:35;5.73;;;3.03;;
72205;SDS011;60111;48.286;7.812;2023-05-20T07:41:08;8.20;;;4.10;;
72205;SDS011;60111;48.286;7.812;2023-05-20T07:43:41;7.80;;;3.92;;
72205;SDS011;60111;48.286;7.812;2023-05-20T07:46:13;5.97;;;3.90;;
72205;SDS011;60111;48.286;7.812;2023-05-20T07:48:46;7.33;;;4.78;;
72205;SDS011;60111;48.286;7.812;2023-05-20T07:51:19;6.75;;;4.08;;
72205;SDS011;60111;48.286;7.812;2023-05-20T07:53:51;7.73;;;3.93;;
72205;SDS011;60111;48.286;7.812;2023-05-20T07:56:24;4.72;;;4.03;;
72205;SDS011;60111;48.286;7.812;2023-05-20T07:58:57;7.17;;;4.10;;
72205;SDS011;60111;48.286;7.812;2023-05-20T08:04:03;6.28;;;3.55;;
72205;SDS011;60111;48.286;7.812;2023-05-20T08:06:35;4.45;;;3.35;;
72205;SDS011;60111;48.286;7.812;2023-05-20T08:09:08;6.10;;;3.60;;
72205;SDS011;60111;48.286;7.812;2023-05-20T08:11:41;5.28;;;3.42;;
72205;SDS011;60111;48.286;7.812;2023-05-20T08:14:13;7.17;;;3.90;;
72205;SDS011;60111;48.286;7.812;2023-05-20T08:16:46;5.83;;;3.75;;
72205;SDS011;60111;48.286;7.812;2023-05-20T08:19:18;6.87;;;3.45;;
72205;SDS011;60111;48.286;7.812;2023-05-20T08:21:51;4.85;;;3.60;;
72205;SDS011;60111;48.286;7.812;2023-05-20T08:24:24;8.93;;;3.75;;
72205;SDS011;60111;48.286;7.812;2023-05-20T08:26:56;4.92;;;3.52;;
72205;SDS011;60111;48.286;7.812;2023-05-20T08:29:29;6.85;;;3.70;;
72205;SDS011;60111;48.286;7.812;2023-05-20T08:32:02;7.62;;;3.70;;
72205;SDS011;60111;48.286;7.812;2023-05-20T08:34:35;4.40;;;3.80;;
72205;SDS011;60111;48.286;7.812;2023-05-20T08:40:00;5.30;;;3.50;;
72205;SDS011;60111;48.286;7.812;2023-05-20T08:42:33;7.67;;;3.70;;
72205;SDS011;60111;48.286;7.812;2023-05-20T08:45:05;6.30;;;3.72;;
72205;SDS011;60111;48.286;7.812;2023-05-20T08:47:40;5.35;;;3.40;;
72205;SDS011;60111;48.286;7.812;2023-05-20T08:50:14;6.07;;;3.77;;
72205;SDS011;60111;48.286;7.812;2023-05-20T08:52:47;5.47;;;3.83;;
72205;SDS011;60111;48.286;7.812;2023-05-20T08:55:31;4.85;;;3.47;;
72205;SDS011;60111;48.286;7.812;2023-05-20T08:58:10;4.70;;;3.40;;
72205;SDS011;60111;48.286;7.812;2023-05-20T09:00:44;7.03;;;3.73;;
72205;SDS011;60111;48.286;7.812;2023-05-20T09:03:17;4.90;;;3.77;;
72205;SDS011;60111;48.286;7.812;2023-05-20T09:05:51;4.37;;;3.52;;
72205;SDS011;60111;48.286;7.812;2023-05-20T09:08:24;3.70;;;3.13;;
72205;SDS011;60111;48.286;7.812;2023-05-20T09:10:56;4.22;;;3.80;;
72205;SDS011;60111;48.286;7.812;2023-05-20T09:13:30;6.12;;;3.40;;
72205;SDS011;60111;48.286;7.812;2023-05-20T09:16:02;7.60;;;3.92;;
72205;SDS011;60111;48.286;7.812;2023-05-20T09:18:39;6.27;;;4.00;;
72205;SDS011;60111;48.286;7.812;2023-05-20T09:21:13;5.70;;;3.37;;
72205;SDS011;60111;48.286;7.812;2023-05-20T09:23:46;7.93;;;4.10;;
72205;SDS011;60111;48.286;7.812;2023-05-20T09:26:20;4.20;;;3.80;;
72205;SDS011;60111;48.286;7.812;2023-05-20T09:28:55;5.80;;;3.77;;
72205;SDS011;60111;48.286;7.812;2023-05-20T09:31:29;5.87;;;4.22;;
72205;SDS011;60111;48.286;7.812;2023-05-20T09:34:03;4.85;;;3.47;;
72205;SDS011;60111;48.286;7.812;2023-05-20T09:36:38;4.90;;;3.50;;
72205;SDS011;60111;48.286;7.812;2023-05-20T09:39:13;4.97;;;4.43;;
72205;SDS011;60111;48.286;7.812;2023-05-20T09:41:50;6.12;;;4.15;;
72205;SDS011;60111;48.286;7.812;2023-05-20T09:44:49;7.13;;;4.13;;
72205;SDS011;60111;48.286;7.812;2023-05-20T09:47:23;6.63;;;4.40;;
72205;SDS011;60111;48.286;7.812;2023-05-20T09:49:56;5.47;;;4.43;;
72205;SDS011;60111;48.286;7.812;2023-05-20T09:52:28;5.35;;;4.17;;
72205;SDS011;60111;48.286;7.812;2023-05-20T09:55:02;4.60;;;4.17;;
72205;SDS011;60111;48.286;7.812;2023-05-20T09:57:36;6.67;;;3.70;;
72205;SDS011;60111;48.286;7.812;2023-05-20T10:00:09;5.92;;;4.00;;
72205;SDS011;60111;48.286;7.812;2023-05-20T10:02:48;5.20;;;4.40;;
72205;SDS011;60111;48.286;7.812;2023-05-20T10:05:29;4.92;;;3.90;;
72205;SDS011;60111;48.286;7.812;2023-05-20T10:19:26;6.17;;;4.22;;
72205;SDS011;60111;48.286;7.812;2023-05-20T10:22:02;10.30;;;5.70;;
72205;SDS011;60111;48.286;7.812;2023-05-20T10:24:36;7.28;;;5.60;;
72205;SDS011;60111;48.286;7.812;2023-05-20T10:27:13;6.83;;;4.20;;
72205;SDS011;60111;48.286;7.812;2023-05-20T10:29:51;6.95;;;4.55;;
72205;SDS011;60111;48.286;7.812;2023-05-20T10:32:31;5.10;;;4.28;;
72205;SDS011;60111;48.286;7.812;2023-05-20T10:35:07;5.28;;;4.17;;
72205;SDS011;60111;48.286;7.812;2023-05-20T10:40:13;5.97;;;4.12;;
72205;SDS011;60111;48.286;7.812;2023-05-20T10:42:46;8.83;;;4.30;;
72205;SDS011;60111;48.286;7.812;2023-05-20T10:45:26;4.53;;;3.95;;
72205;SDS011;60111;48.286;7.812;2023-05-20T10:48:00;6.03;;;4.03;;
72205;SDS011;60111;48.286;7.812;2023-05-20T10:50:33;5.53;;;3.67;;
72205;SDS011;60111;48.286;7.812;2023-05-20T10:53:11;5.33;;;4.10;;
72205;SDS011;60111;48.286;7.812;2023-05-20T10:55:47;8.68;;;5.22;;
72205;SDS011;60111;48.286;7.812;2023-05-20T10:58:24;7.60;;;5.47;;
72205;SDS011;60111;48.286;7.812;2023-05-20T11:00:57;7.60;;;4.17;;
72205;SDS011;60111;48.286;7.812;2023-05-20T11:03:30;5.70;;;4.08;;
72205;SDS011;60111;48.286;7.812;2023-05-20T11:06:10;5.03;;;4.20;;
72205;SDS011;60111;48.286;7.812;2023-05-20T11:08:43;5.95;;;4.33;;
72205;SDS011;60111;48.286;7.812;2023-05-20T11:11:17;7.70;;;4.03;;
72205;SDS011;60111;48.286;7.812;2023-05-20T11:13:49;4.60;;;4.10;;
72205;SDS011;60111;48.286;7.812;2023-05-20T11:16:22;6.10;;;4.40;;
72205;SDS011;60111;48.286;7.812;2023-05-20T11:18:55;6.08;;;4.80;;
72205;SDS011;60111;48.286;7.812;2023-05-20T11:21:41;7.05;;;4.58;;
72205;SDS011;60111;48.286;7.812;2023-05-20T11:24:21;5.83;;;4.50;;
72205;SDS011;60111;48.286;7.812;2023-05-20T11:26:56;3.85;;;3.40;;
72205;SDS011;60111;48.286;7.812;2023-05-20T11:29:30;5.40;;;3.55;;
72205;SDS011;60111;48.286;7.812;2023-05-20T11:32:03;6.45;;;4.37;;
72205;SDS011;60111;48.286;7.812;2023-05-20T11:34:36;5.87;;;3.50;;
72205;SDS011;60111;48.286;7.812;2023-05-20T11:37:09;5.17;;;4.30;;
72205;SDS011;60111;48.286;7.812;2023-05-20T11:42:15;5.03;;;4.10;;
72205;SDS011;60111;48.286;7.812;2023-05-20T11:44:48;5.53;;;3.47;;
72205;SDS011;60111;48.286;7.812;2023-05-20T11:47:23;4.58;;;3.72;;
72205;SDS011;60111;48.286;7.812;2023-05-20T11:49:57;4.97;;;3.70;;
72205;SDS011;60111;48.286;7.812;2023-05-20T11:52:32;6.65;;;4.15;;
72205;SDS011;60111;48.286;7.812;2023-05-20T11:55:08;8.25;;;3.85;;
72205;SDS011;60111;48.286;7.812;2023-05-20T11:57:40;5.87;;;4.10;;
72205;SDS011;60111;48.286;7.812;2023-05-20T12:00:13;6.77;;;3.73;;
72205;SDS011;60111;48.286;7.812;2023-05-20T12:02:46;5.30;;;3.80;;
72205;SDS011;60111;48.286;7.812;2023-05-20T12:05:19;9.65;;;4.17;;
72205;SDS011;60111;48.286;7.812;2023-05-20T12:07:51;7.23;;;3.83;;
72205;SDS011;60111;48.286;7.812;2023-05-20T12:10:24;5.58;;;3.60;;
72205;SDS011;60111;48.286;7.812;2023-05-20T12:12:57;4.92;;;3.80;;
72205;SDS011;60111;48.286;7.812;2023-05-20T12:15:30;5.95;;;3.70;;
72205;SDS011;60111;48.286;7.812;2023-05-20T12:18:03;4.87;;;4.12;;
72205;SDS011;60111;48.286;7.812;2023-05-20T12:20:35;5.70;;;3.55;;
72205;SDS011;60111;48.286;7.812;2023-05-20T12:23:08;5.17;;;3.90;;
72205;SDS011;60111;48.286;7.812;2023-05-20T12:25:40;5.83;;;4.05;;
72205;SDS011;60111;48.286;7.812;2023-05-20T12:28:15;4.50;;;3.50;;
72205;SDS011;60111;48.286;7.812;2023-05-20T12:30:47;8.00;;;4.07;;
72205;SDS011;60111;48.286;7.812;2023-05-20T12:33:20;6.90;;;3.67;;
72205;SDS011;60111;48.286;7.812;2023-05-20T12:35:53;6.30;;;4.03;;
72205;SDS011;60111;48.286;7.812;2023-05-20T12:38:25;6.15;;;3.95;;
72205;SDS011;60111;48.286;7.812;2023-05-20T12:40:58;5.10;;;3.42;;
72205;SDS011;60111;48.286;7.812;2023-05-20T12:43:31;4.20;;;3.80;;
72205;SDS011;60111;48.286;7.812;2023-05-20T12:46:05;4.47;;;3.60;;
72205;SDS011;60111;48.286;7.812;2023-05-20T12:48:38;4.70;;;3.27;;
72205;SDS011;60111;48.286;7.812;2023-05-20T12:51:10;7.10;;;4.03;;
72205;SDS011;60111;48.286;7.812;2023-05-20T12:53:43;5.78;;;3.95;;
72205;SDS011;60111;48.286;7.812;2023-05-20T12:56:15;21.17;;;5.12;;
72205;SDS011;60111;48.286;7.812;2023-05-20T12:58:49;27.63;;;5.67;;
72205;SDS011;60111;48.286;7.812;2023-05-20T13:01:22;9.68;;;3.98;;
72205;SDS011;60111;48.286;7.812;2023-05-20T13:03:54;13.68;;;5.00;;
72205;SDS011;60111;48.286;7.812;2023-05-20T13:06:27;14.90;;;4.10;;
72205;SDS011;60111;48.286;7.812;2023-05-20T13:08:59;11.45;;;4.53;;
72205;SDS011;60111;48.286;7.812;2023-05-20T13:11:32;4.95;;;3.72;;
72205;SDS011;60111;48.286;7.812;2023-05-20T13:14:05;4.55;;;3.85;;
72205;SDS011;60111;48.286;7.812;2023-05-20T13:16:37;5.15;;;3.77;;
72205;SDS011;60111;48.286;7.812;2023-05-20T13:19:10;4.75;;;3.40;;
72205;SDS011;60111;48.286;7.812;2023-05-20T13:21:42;4.53;;;3.58;;
72205;SDS011;60111;48.286;7.812;2023-05-20T13:24:15;4.37;;;3.40;;
72205;SDS011;60111;48.286;7.812;2023-05-20T13:26:48;7.47;;;3.83;;
72205;SDS011;60111;48.286;7.812;2023-05-20T13:29:22;6.55;;;4.00;;
72205;SDS011;60111;48.286;7.812;2023-05-20T13:31:54;4.93;;;3.40;;
72205;SDS011;60111;48.286;7.812;2023-05-20T13:34:28;5.15;;;3.10;;
72205;SDS011;60111;48.286;7.812;2023-05-20T13:37:01;5.17;;;3.55;;
72205;SDS011;60111;48.286;7.812;2023-05-20T13:39:34;4.58;;;3.25;;
72205;SDS011;60111;48.286;7.812;2023-05-20T13:42:07;4.00;;;3.43;;
72205;SDS011;60111;48.286;7.812;2023-05-20T13:44:39;4.37;;;3.00;;
72205;SDS011;60111;48.286;7.812;2023-05-20T13:47:12;4.35;;;3.50;;
72205;SDS011;60111;48.286;7.812;2023-05-20T13:49:45;5.97;;;3.85;;
72205;SDS011;60111;48.286;7.812;2023-05-20T13:52:17;5.22;;;3.60;;
72205;SDS011;60111;48.286;7.812;2023-05-20T13:54:50;4.30;;;3.83;;
72205;SDS011;60111;48.286;7.812;2023-05-20T13:57:23;4.50;;;3.25;;
72205;SDS011;60111;48.286;7.812;2023-05-20T13:59:55;3.58;;;3.27;;
72205;SDS011;60111;48.286;7.812;2023-05-20T14:02:28;5.83;;;3.92;;
72205;SDS011;60111;48.286;7.812;2023-05-20T14:05:01;3.97;;;3.00;;
72205;SDS011;60111;48.286;7.812;2023-05-20T14:07:34;4.10;;;2.97;;
72205;SDS011;60111;48.286;7.812;2023-05-20T14:10:06;3.95;;;3.30;;
72205;SDS011;60111;48.286;7.812;2023-05-20T14:12:39;3.15;;;2.87;;
72205;SDS011;60111;48.286;7.812;2023-05-20T14:15:12;3.37;;;3.07;;
72205;SDS011;60111;48.286;7.812;2023-05-20T14:17:46;3.65;;;3.10;;
72205;SDS011;60111;48.286;7.812;2023-05-20T14:20:18;4.20;;;3.20;;
72205;SDS011;60111;48.286;7.812;2023-05-20T14:22:52;5.17;;;2.98;;
72205;SDS011;60111;48.286;7.812;2023-05-20T14:25:24;6.90;;;3.87;;
72205;SDS011;60111;48.286;7.812;2023-05-20T14:27:57;5.55;;;3.87;;
72205;SDS011;60111;48.286;7.812;2023-05-20T14:30:30;5.17;;;3.30;;
72205;SDS011;60111;48.286;7.812;2023-05-20T14:33:02;6.28;;;3.02;;
72205;SDS011;60111;48.286;7.812;2023-05-20T14:35:35;8.78;;;4.47;;
72205;SDS011;60111;48.286;7.812;2023-05-20T14:38:08;4.55;;;3.60;;
72205;SDS011;60111;48.286;7.812;2023-05-20T14:40:40;6.00;;;3.70;;
72205;SDS011;60111;48.286;7.812;2023-05-20T14:43:13;6.87;;;3.70;;
72205;SDS011;60111;48.286;7.812;2023-05-20T14:45:46;4.22;;;3.52;;
72205;SDS011;60111;48.286;7.812;2023-05-20T14:48:18;4.17;;;3.40;;
72205;SDS011;60111;48.286;7.812;2023-05-20T14:50:52;6.90;;;5.10;;
72205;SDS011;60111;48.286;7.812;2023-05-20T14:53:24;4.80;;;3.80;;
72205;SDS011;60111;48.286;7.812;2023-05-20T14:55:57;8.93;;;3.47;;
72205;SDS011;60111;48.286;7.812;2023-05-20T14:58:29;5.22;;;3.72;;
72205;SDS011;60111;48.286;7.812;2023-05-20T15:01:02;4.37;;;3.77;;
72205;SDS011;60111;48.286;7.812;2023-05-20T15:03:34;4.70;;;4.17;;
72205;SDS011;60111;48.286;7.812;2023-05-20T15:06:07;7.30;;;4.20;;
72205;SDS011;60111;48.286;7.812;2023-05-20T15:08:39;8.90;;;4.42;;
72205;SDS011;60111;48.286;7.812;2023-05-20T15:11:12;8.73;;;4.10;;
72205;SDS011;60111;48.286;7.812;2023-05-20T15:13:45;4.70;;;3.98;;
72205;SDS011;60111;48.286;7.812;2023-05-20T15:16:18;4.97;;;4.30;;
72205;SDS011;60111;48.286;7.812;2023-05-20T15:18:52;7.77;;;4.47;;
72205;SDS011;60111;48.286;7.812;2023-05-20T15:21:25;4.78;;;3.87;;
72205;SDS011;60111;48.286;7.812;2023-05-20T15:23:57;10.95;;;4.25;;
72205;SDS011;60111;48.286;7.812;2023-05-20T15:26:30;5.12;;;4.12;;
72205;SDS011;60111;48.286;7.812;2023-05-20T15:29:02;5.15;;;4.12;;
72205;SDS011;60111;48.286;7.812;2023-05-20T15:31:35;5.10;;;4.13;;
72205;SDS011;60111;48.286;7.812;2023-05-20T15:34:08;7.65;;;4.22;;
72205;SDS011;60111;48.286;7.812;2023-05-20T15:36:40;7.67;;;4.78;;
72205;SDS011;60111;48.286;7.812;2023-05-20T15:39:13;6.92;;;5.03;;
72205;SDS011;60111;48.286;7.812;2023-05-20T15:41:45;7.87;;;4.95;;
72205;SDS011;60111;48.286;7.812;2023-05-20T15:44:19;6.90;;;4.65;;
72205;SDS011;60111;48.286;7.812;2023-05-20T15:46:52;5.03;;;4.47;;
72205;SDS011;60111;48.286;7.812;2023-05-20T15:49:25;8.48;;;5.15;;
72205;SDS011;60111;48.286;7.812;2023-05-20T15:52:07;7.93;;;4.43;;
72205;SDS011;60111;48.286;7.812;2023-05-20T15:54:40;5.17;;;4.30;;
72205;SDS011;60111;48.286;7.812;2023-05-20T15:57:12;5.47;;;4.53;;